Time;durP1;ratioP1;P1;durP2;ratioP2;P2;SDS_P1;SDS_P2;PMS_P1;PMS_P2;Temp;Humidity;BMP_temperature;BMP_pressure;BME280_temperature;BME280_humidity;BME280_pressure;Samples;Min_cycle;Max_cycle;Signal;HPM_P1;HPM_P2
2024/03/13 00:01:16;;;;;;;;;;;;;;;;;;4943293;28;92358;-74
2024/03/13 00:03:42;;;;;;;;;;;;;;;;;;4944715;28;92717;-74
2024/03/13 00:06:09;;;;;;;;;;;;;;;;;;4944808;28;93219;-74
2024/03/13 00:08:34;;;;;;;;;;;;;;;;;;4943945;28;92243;-74
2024/03/13 00:11:00;;;;;;;;;;;;;;;;;;4945586;28;94320;-74
2024/03/13 00:13:27;;;;;;;;;;;;;;;;;;4942423;28;92882;-74
2024/03/13 00:15:52;;;;;;;;;;;;;;;;;;4943762;28;93793;-72
2024/03/13 00:18:20;;;;;;;;;;;;;;;;;;4945010;28;92805;-74
2024/03/13 00:20:45;;;;;;;;;;;;;;;;;;4940928;28;92452;-74
2024/03/13 00:23:11;;;;;;;;;;;;;;;;;;4927210;28;96466;-73
2024/03/13 00:25:37;;;;;;;;;;;;;;;;;;4934810;28;92812;-74
2024/03/13 00:28:02;;;;;;;;;;;;;;;;;;4934966;28;92739;-74
2024/03/13 00:30:29;;;;;;;;;;;;;;;;;;4936395;28;92850;-74
2024/03/13 00:32:55;;;;;;;;;;;;;;;;;;4930904;28;92152;-74
2024/03/13 00:35:23;;;;;;;;;;;;;;;;;;4937166;28;92953;-74
2024/03/13 00:37:51;;;;;;;;;;;;;;;;;;4932913;28;92528;-74
2024/03/13 00:40:17;;;;;;;;;;;;;;;;;;4930604;28;93516;-74
2024/03/13 00:42:42;;;;;;;;;;;;;;;;;;4934548;28;93427;-73
2024/03/13 00:45:08;;;;;;;;;;;;;;;;;;4933763;28;92899;-74
2024/03/13 00:47:34;;;;;;;;;;;;;;;;;;4932235;28;93976;-73
2024/03/13 00:49:59;;;;;;;;;;;;;;;;;;4925317;28;92635;-74
2024/03/13 00:52:24;;;;;;;;;;;;;;;;;;4936903;28;92433;-74
2024/03/13 00:54:50;;;;;;;;;;;;;;;;;;4936690;28;92957;-74
2024/03/13 00:57:17;;;;;;;;;;;;;;;;;;4926794;28;92429;-74
2024/03/13 00:59:43;;;;;;;;;;;;;;;;;;4935219;28;93147;-74
2024/03/13 01:02:09;;;;;;;;;;;;;;;;;;4932677;28;92608;-75
2024/03/13 01:04:35;;;;;;;;;;;;;;;;;;4931629;28;94342;-73
2024/03/13 01:07:01;;;;;;;;;;;;;;;;;;4932425;28;92736;-74
2024/03/13 01:09:26;;;;;;;;;;;;;;;;;;4932249;28;92587;-73
2024/03/13 01:11:52;;;;;;;;;;;;;;;;;;4933910;28;92792;-73
2024/03/13 01:14:20;;;;;;;;;;;;;;;;;;4940988;28;92403;-74
2024/03/13 01:16:46;;;;;;;;;;;;;;;;;;4938388;28;93562;-73
2024/03/13 01:19:11;;;;;;;;;;;;;;;;;;4935371;28;93129;-74
2024/03/13 01:21:36;;;;;;;;;;;;;;;;;;4931904;28;93155;-74
2024/03/13 01:24:02;;;;;;;;;;;;;;;;;;4932692;28;94651;-74
2024/03/13 01:26:28;;;;;;;;;;;;;;;;;;4936579;28;92606;-74
2024/03/13 01:28:53;;;;;;;;;;;;;;;;;;4937576;28;93469;-74
2024/03/13 01:31:19;;;;;;;;;;;;;;;;;;4938851;28;92740;-73
2024/03/13 01:33:45;;;;;;;;;;;;;;;;;;4936721;28;92644;-74
2024/03/13 01:36:10;;;;;;;;;;;;;;;;;;4933902;28;95251;-74
2024/03/13 01:38:35;;;;;;;;;;;;;;;;;;4936461;28;92979;-74
2024/03/13 01:55:23;;;;;;;;;;;;;;;;;;4936942;28;93578;-74
2024/03/13 02:03:15;;;;;;;;;;;;;;;;;;4939609;28;92194;-74
2024/03/13 02:05:42;;;;;;;;;;;;;;;;;;4934245;28;95474;-73
2024/03/13 02:08:08;;;;;;;;;;;;;;;;;;4937038;28;92197;-74
2024/03/13 02:10:33;;;;;;;;;;;;;;;;;;4934837;28;95220;-74
2024/03/13 02:13:02;;;;;;;;;;;;;;;;;;4937334;28;93912;-73
2024/03/13 02:15:27;;;;;;;;;;;;;;;;;;4935300;28;92789;-73
2024/03/13 02:17:54;;;;;;;;;;;;;;;;;;4935384;28;92433;-74
2024/03/13 02:20:21;;;;;;;;;;;;;;;;;;4944320;28;93608;-74
2024/03/13 02:22:47;;;;;;;;;;;;;;;;;;4937648;28;92738;-74
2024/03/13 02:25:13;;;;;;;;;;;;;;;;;;4935750;28;92731;-74
2024/03/13 02:27:38;;;;;;;;;;;;;;;;;;4930984;28;94070;-74
2024/03/13 02:30:05;;;;;;;;;;;;;;;;;;4933936;28;95458;-74
2024/03/13 02:32:31;;;;;;;;;;;;;;;;;;4932231;28;92880;-74
2024/03/13 02:34:57;;;;;;;;;;;;;;;;;;4934540;28;92841;-74
2024/03/13 02:37:22;;;;;;;;;;;;;;;;;;4938596;28;92870;-74
2024/03/13 02:39:48;;;;;;;;;;;;;;;;;;4933942;28;92629;-74
2024/03/13 02:42:16;;;;;;;;;;;;;;;;;;4939958;28;92932;-74
2024/03/13 02:44:43;;;;;;;;;;;;;;;;;;4936315;28;93774;-74
2024/03/13 02:47:09;;;;;;;;;;;;;;;;;;4933685;28;94279;-73
2024/03/13 02:49:35;;;;;;;;;;;;;;;;;;4933416;28;93200;-74
2024/03/13 02:52:01;;;;;;;;;;;;;;;;;;4940919;28;92826;-74
2024/03/13 02:54:26;;;;;;;;;;;;;;;;;;4938826;28;92436;-74
2024/03/13 02:56:51;;;;;;;;;;;;;;;;;;4936923;28;92811;-73
2024/03/13 02:59:20;;;;;;;;;;;;;;;;;;4935575;28;92991;-73
2024/03/13 03:01:45;;;;;;;;;;;;;;;;;;4934791;28;92552;-74
2024/03/13 03:04:10;;;;;;;;;;;;;;;;;;4937866;28;92987;-74
2024/03/13 03:06:36;;;;;;;;;;;;;;;;;;4934957;28;92771;-74
2024/03/13 03:09:03;;;;;;;;;;;;;;;;;;4935719;28;93860;-73
2024/03/13 03:11:28;;;;;;;;;;;;;;;;;;4932295;28;93395;-74
2024/03/13 03:13:54;;;;;;;;;;;;;;;;;;4935712;28;92747;-74
2024/03/13 03:16:19;;;;;;;;;;;;;;;;;;4933873;28;95573;-73
2024/03/13 03:18:45;;;;;;;;;;;;;;;;;;4934531;28;94379;-74
2024/03/13 03:21:10;;;;;;;;;;;;;;;;;;4928121;28;92953;-73
2024/03/13 03:23:35;;;;;;;;;;;;;;;;;;4940475;28;92807;-74
2024/03/13 03:26:00;;;;;;;;;;;;;;;;;;4938681;28;92349;-74
2024/03/13 03:28:25;;;;;;;;;;;;;;;;;;4935682;28;92255;-74
2024/03/13 03:30:51;;;;;;;;;;;;;;;;;;4936064;28;92563;-74
2024/03/13 03:33:17;;;;;;;;;;;;;;;;;;4936161;28;93669;-74
2024/03/13 03:35:43;;;;;;;;;;;;;;;;;;4935522;28;93403;-75
2024/03/13 03:38:09;;;;;;;;;;;;;;;;;;4928260;28;95746;-74
2024/03/13 03:40:34;;;;;;;;;;;;;;;;;;4935736;28;92304;-74
2024/03/13 03:42:59;;;;;;;;;;;;;;;;;;4934373;28;92666;-74
2024/03/13 03:45:25;;;;;;;;;;;;;;;;;;4936384;28;93122;-74
2024/03/13 03:47:50;;;;;;;;;;;;;;;;;;4934941;28;92280;-74
2024/03/13 03:50:17;;;;;;;;;;;;;;;;;;4934200;28;92055;-74
2024/03/13 03:52:42;;;;;;;;;;;;;;;;;;4938209;28;93076;-74
2024/03/13 03:55:07;;;;;;;;;;;;;;;;;;4938546;28;92774;-74
2024/03/13 03:57:33;;;;;;;;;;;;;;;;;;4934798;28;95041;-74
2024/03/13 03:59:59;;;;;;;;;;;;;;;;;;4933916;28;92239;-74
2024/03/13 04:02:24;;;;;;;;;;;;;;;;;;4934470;28;92280;-74
2024/03/13 04:04:49;;;;;;;;;;;;;;;;;;4934391;28;92779;-74
2024/03/13 04:07:14;;;;;;;;;;;;;;;;;;4935367;28;92603;-74
2024/03/13 04:09:40;;;;;;;;;;;;;;;;;;4926809;28;93715;-73
2024/03/13 04:12:05;;;;;;;;;;;;;;;;;;4931451;28;93075;-74
2024/03/13 04:14:30;;;;;;;;;;;;;;;;;;4933635;28;93867;-74
2024/03/13 04:16:55;;;;;;;;;;;;;;;;;;4935116;28;93335;-74
2024/03/13 04:19:21;;;;;;;;;;;;;;;;;;4935569;28;92793;-74
2024/03/13 04:21:47;;;;;;;;;;;;;;;;;;4926558;28;93279;-74
2024/03/13 04:24:12;;;;;;;;;;;;;;;;;;4936896;28;92706;-73
2024/03/13 04:26:41;;;;;;;;;;;;;;;;;;4934413;28;93282;-74
2024/03/13 04:29:06;;;;;;;;;;;;;;;;;;4941686;28;93127;-73
2024/03/13 04:31:33;;;;;;;;;;;;;;;;;;4933949;28;92289;-73
2024/03/13 04:33:58;;;;;;;;;;;;;;;;;;4930590;28;92509;-74
2024/03/13 04:36:23;;;;;;;;;;;;;;;;;;4935547;28;94864;-74
2024/03/13 04:38:51;;;;;;;;;;;;;;;;;;4927460;28;91876;-73
2024/03/13 04:41:19;;;;;;;;;;;;;;;;;;4936204;28;92786;-74
2024/03/13 04:43:45;;;;;;;;;;;;;;;;;;4929353;28;94423;-73
2024/03/13 04:46:14;;;;;;;;;;;;;;;;;;4934297;28;93592;-74
2024/03/13 04:48:40;;;;;;;;;;;;;;;;;;4940338;28;93268;-74
2024/03/13 04:51:07;;;;;;;;;;;;;;;;;;4934235;28;93361;-74
2024/03/13 04:53:32;;;;;;;;;;;;;;;;;;4936103;28;92876;-73
2024/03/13 04:55:59;;;;;;;;;;;;;;;;;;4936811;28;93276;-74
2024/03/13 04:58:24;;;;;;;;;;;;;;;;;;4937949;28;92704;-73
2024/03/13 05:00:50;;;;;;;;;;;;;;;;;;4938154;28;92543;-74
2024/03/13 05:03:15;;;;;;;;;;;;;;;;;;4939613;28;92167;-74
2024/03/13 05:05:40;;;;;;;;;;;;;;;;;;4930744;28;94049;-74
2024/03/13 05:08:05;;;;;;;;;;;;;;;;;;4939978;28;94067;-74
2024/03/13 05:10:30;;;;;;;;;;;;;;;;;;4939668;28;94016;-73
2024/03/13 05:12:56;;;;;;;;;;;;;;;;;;4941244;28;92847;-74
2024/03/13 05:15:21;;;;;;;;;;;;;;;;;;4934558;28;92778;-74
2024/03/13 05:17:49;;;;;;;;;;;;;;;;;;4931549;28;92747;-74
2024/03/13 05:20:17;;;;;;;;;;;;;;;;;;4938305;28;92623;-75
2024/03/13 05:22:42;;;;;;;;;;;;;;;;;;4935944;28;93834;-73
2024/03/13 05:25:14;;;;;;;;;;;;;;;;;;4935800;28;93225;-73
2024/03/13 05:27:39;;;;;;;;;;;;;;;;;;4933302;28;92518;-74
2024/03/13 05:30:06;;;;;;;;;;;;;;;;;;4933496;28;93571;-74
2024/03/13 05:32:32;;;;;;;;;;;;;;;;;;4929977;28;93573;-73
2024/03/13 05:34:57;;;;;;;;;;;;;;;;;;4939472;28;93437;-74
2024/03/13 05:37:22;;;;;;;;;;;;;;;;;;4934649;28;93055;-74
2024/03/13 05:39:51;;;;;;;;;;;;;;;;;;4940665;28;94073;-73
2024/03/13 05:42:17;;;;;;;;;;;;;;;;;;4928707;28;93827;-73
2024/03/13 05:44:43;;;;;;;;;;;;;;;;;;4932270;28;92445;-74
2024/03/13 05:47:09;;;;;;;;;;;;;;;;;;4930976;28;92896;-74
2024/03/13 05:49:36;;;;;;;;;;;;;;;;;;4927757;28;92849;-73
2024/03/13 05:52:01;;;;;;;;;;;;;;;;;;4940418;28;92521;-74
2024/03/13 05:54:28;;;;;;;;;;;;;;;;;;4939606;28;95078;-74
2024/03/13 05:56:53;;;;;;;;;;;;;;;;;;4935970;28;94067;-74
2024/03/13 05:59:18;;;;;;;;;;;;;;;;;;4928804;28;93917;-73
2024/03/13 06:01:43;;;;;;;;;;;;;;;;;;4937536;28;95752;-74
2024/03/13 06:04:09;;;;;;;;;;;;;;;;;;4936655;28;92849;-73
2024/03/13 06:06:34;;;;;;;;;;;;;;;;;;4933496;28;92701;-74
2024/03/13 06:08:59;;;;;;;;;;;;;;;;;;4938904;28;92851;-73
2024/03/13 06:11:24;;;;;;;;;;;;;;;;;;4941202;28;93392;-74
2024/03/13 06:13:50;;;;;;;;;;;;;;;;;;4941657;28;96588;-73
2024/03/13 06:16:15;;;;;;;;;;;;;;;;;;4927665;28;93109;-73
2024/03/13 06:18:41;;;;;;;;;;;;;;;;;;4938128;28;92442;-73
2024/03/13 06:21:07;;;;;;;;;;;;;;;;;;4934426;28;92986;-73
2024/03/13 06:23:32;;;;;;;;;;;;;;;;;;4938270;28;93432;-73
2024/03/13 06:25:58;;;;;;;;;;;;;;;;;;4937376;28;96111;-73
2024/03/13 06:31:07;;;;;;;;;;;;;;;;;;4933255;28;92557;-73
2024/03/13 06:33:32;;;;;;;;;;;;;;;;;;4935462;28;93022;-73
2024/03/13 06:35:58;;;;;;;;;;;;;;;;;;4932469;28;92802;-73
2024/03/13 06:38:23;;;;;;;;;;;;;;;;;;4937105;28;92573;-74
2024/03/13 06:40:48;;;;;;;;;;;;;;;;;;4935113;28;94463;-73
2024/03/13 06:43:14;;;;;;;;;;;;;;;;;;4934541;28;92453;-74
2024/03/13 06:45:42;;;;;;;;;;;;;;;;;;4944235;28;93091;-71
2024/03/13 06:48:08;;;;;;;;;;;;;;;;;;4938681;28;93763;-73
2024/03/13 06:50:33;;;;;;;;;;;;;;;;;;4940790;28;92883;-73
2024/03/13 06:52:58;;;;;;;;;;;;;;;;;;4939625;28;92546;-73
2024/03/13 06:55:25;;;;;;;;;;;;;;;;;;4931492;28;95715;-74
2024/03/13 06:57:50;;;;;;;;;;;;;;;;;;4939129;28;92845;-73
2024/03/13 07:00:16;;;;;;;;;;;;;;;;;;4934790;28;93803;-70
2024/03/13 07:02:41;;;;;;;;;;;;;;;;;;4937170;28;92268;-73
2024/03/13 07:05:07;;;;;;;;;;;;;;;;;;4945221;28;92769;-73
2024/03/13 07:07:32;;;;;;;;;;;;;;;;;;4938962;28;95295;-74
2024/03/13 07:09:57;;;;;;;;;;;;;;;;;;4933639;28;93013;-73
2024/03/13 07:12:24;;;;;;;;;;;;;;;;;;4932457;28;95350;-74
2024/03/13 07:14:49;;;;;;;;;;;;;;;;;;4933974;28;93221;-73
2024/03/13 07:17:15;;;;;;;;;;;;;;;;;;4934002;28;93048;-74
2024/03/13 07:19:40;;;;;;;;;;;;;;;;;;4932325;28;92803;-73
2024/03/13 07:22:06;;;;;;;;;;;;;;;;;;4936209;28;93178;-73
2024/03/13 07:24:32;;;;;;;;;;;;;;;;;;4936488;28;95982;-73
2024/03/13 07:26:57;;;;;;;;;;;;;;;;;;4937742;28;92615;-73
2024/03/13 07:29:22;;;;;;;;;;;;;;;;;;4938877;28;92068;-73
2024/03/13 07:31:48;;;;;;;;;;;;;;;;;;4931802;28;92516;-73
2024/03/13 07:34:13;;;;;;;;;;;;;;;;;;4935246;28;93001;-73
2024/03/13 07:36:38;;;;;;;;;;;;;;;;;;4926815;28;93164;-73
2024/03/13 07:39:04;;;;;;;;;;;;;;;;;;4935654;28;93284;-73
2024/03/13 07:41:33;;;;;;;;;;;;;;;;;;4937639;28;95338;-75
2024/03/13 07:43:59;;;;;;;;;;;;;;;;;;4940398;28;92510;-75
2024/03/13 07:46:25;;;;;;;;;;;;;;;;;;4934350;28;95470;-74
2024/03/13 07:48:50;;;;;;;;;;;;;;;;;;4933643;28;92836;-75
2024/03/13 07:51:15;;;;;;;;;;;;;;;;;;4940130;28;92739;-74
2024/03/13 07:53:41;;;;;;;;;;;;;;;;;;4940722;28;92781;-75
2024/03/13 07:56:06;;;;;;;;;;;;;;;;;;4938859;28;92483;-78
2024/03/13 07:58:32;;;;;;;;;;;;;;;;;;4937724;28;92535;-78
2024/03/13 08:00:58;;;;;;;;;;;;;;;;;;4937374;28;96853;-76
2024/03/13 08:03:24;;;;;;;;;;;;;;;;;;4934191;28;92556;-79
2024/03/13 08:05:49;;;;;;;;;;;;;;;;;;4940904;28;93911;-78
2024/03/13 08:08:15;;;;;;;;;;;;;;;;;;4931080;28;94164;-79
2024/03/13 08:10:40;;;;;;;;;;;;;;;;;;4930480;28;93507;-79
2024/03/13 08:13:05;;;;;;;;;;;;;;;;;;4935888;28;93234;-77
2024/03/13 08:15:30;;;;;;;;;;;;;;;;;;4933621;28;93792;-78
2024/03/13 08:17:58;;;;;;;;;;;;;;;;;;4936448;28;92963;-77
2024/03/13 08:20:24;;;;;;;;;;;;;;;;;;4933171;28;95726;-77
2024/03/13 08:22:49;;;;;;;;;;;;;;;;;;4941945;28;92726;-76
2024/03/13 08:25:19;;;;;;;;;;;;;;;;;;4934354;28;93369;-77
2024/03/13 08:27:45;;;;;;;;;;;;;;;;;;4937559;28;94007;-77
2024/03/13 08:30:10;;;;;;;;;;;;;;;;;;4933093;28;93712;-77
2024/03/13 08:32:36;;;;;;;;;;;;;;;;;;4936215;28;93503;-76
2024/03/13 08:35:01;;;;;;;;;;;;;;;;;;4934761;28;92647;-75
2024/03/13 08:37:26;;;;;;;;;;;;;;;;;;4941173;28;92702;-77
2024/03/13 08:39:52;;;;;;;;;;;;;;;;;;4933230;28;92826;-77
2024/03/13 08:42:17;;;;;;;;;;;;;;;;;;4933579;28;91856;-75
2024/03/13 08:44:42;;;;;;;;;;;;;;;;;;4936124;28;93139;-77
2024/03/13 08:47:08;;;;;;;;;;;;;;;;;;4937460;28;93123;-77
2024/03/13 08:49:33;;;;;;;;;;;;;;;;;;4932392;28;93289;-78
2024/03/13 08:51:59;;;;;;;;;;;;;;;;;;4934658;28;92831;-77
2024/03/13 08:54:24;;;;;;;;;;;;;;;;;;4938209;28;93007;-77
2024/03/13 08:56:49;;;;;;;;;;;;;;;;;;4933964;28;92736;-77
2024/03/13 08:59:14;;;;;;;;;;;;;;;;;;4929131;28;94725;-77
2024/03/13 09:01:43;;;;;;;;;;;;;;;;;;4937706;28;93936;-77
2024/03/13 09:04:11;;;;;;;;;;;;;;;;;;4940228;28;92584;-76
2024/03/13 09:06:38;;;;;;;;;;;;;;;;;;4938983;28;92233;-76
2024/03/13 09:09:03;;;;;;;;;;;;;;;;;;4940200;28;92605;-77
2024/03/13 09:11:28;;;;;;;;;;;;;;;;;;4932992;28;92808;-76
2024/03/13 09:13:54;;;;;;;;;;;;;;;;;;4942092;28;93072;-77
2024/03/13 09:16:19;;;;;;;;;;;;;;;;;;4942542;28;94377;-78
2024/03/13 09:18:44;;;;;;;;;;;;;;;;;;4938227;28;92395;-78
2024/03/13 09:21:12;;;;;;;;;;;;;;;;;;4941894;28;92744;-79
2024/03/13 09:23:37;;;;;;;;;;;;;;;;;;4941146;28;93039;-76
2024/03/13 09:26:02;;;;;;;;;;;;;;;;;;4932991;28;93136;-77
2024/03/13 09:28:27;;;;;;;;;;;;;;;;;;4942363;28;92924;-77
2024/03/13 09:30:52;;;;;;;;;;;;;;;;;;4935226;28;92375;-77
2024/03/13 09:33:18;;;;;;;;;;;;;;;;;;4935788;28;92601;-77
2024/03/13 09:35:43;;;;;;;;;;;;;;;;;;4937159;28;92844;-77
2024/03/13 09:38:10;;;;;;;;;;;;;;;;;;4935802;28;93929;-76
2024/03/13 09:40:35;;;;;;;;;;;;;;;;;;4936655;28;93203;-77
2024/03/13 09:43:03;;;;;;;;;;;;;;;;;;4943275;28;92542;-76
2024/03/13 09:45:28;;;;;;;;;;;;;;;;;;4940113;28;92953;-77
2024/03/13 09:47:54;;;;;;;;;;;;;;;;;;4936357;28;92384;-78
2024/03/13 09:50:20;;;;;;;;;;;;;;;;;;4943981;28;92635;-78
2024/03/13 09:52:48;;;;;;;;;;;;;;;;;;4944444;28;94556;-77
2024/03/13 09:55:15;;;;;;;;;;;;;;;;;;4945423;28;91791;-78
2024/03/13 09:57:40;;;;;;;;;;;;;;;;;;4942632;28;93388;-78
2024/03/13 10:00:10;;;;;;;;;;;;;;;;;;4937122;28;92696;-78
2024/03/13 10:02:37;;;;;;;;;;;;;;;;;;4941516;28;94997;-77
2024/03/13 10:05:03;;;;;;;;;;;;;;;;;;4944629;28;95280;-77
2024/03/13 10:07:29;;;;;;;;;;;;;;;;;;4933635;28;92921;-78
2024/03/13 10:09:54;;;;;;;;;;;;;;;;;;4945665;28;95101;-78
2024/03/13 10:12:20;;;;;;;;;;;;;;;;;;4938429;28;95885;-77
2024/03/13 10:14:53;;;;;;;;;;;;;;;;;;4941280;28;92517;-79
2024/03/13 10:17:18;;;;;;;;;;;;;;;;;;4930374;28;94282;-77
2024/03/13 10:19:49;;;;;;;;;;;;;;;;;;4938345;28;92169;-77
2024/03/13 10:22:16;;;;;;;;;;;;;;;;;;4930624;28;92707;-80
2024/03/13 10:24:42;;;;;;;;;;;;;;;;;;4944228;28;92802;-79
2024/03/13 10:27:09;;;;;;;;;;;;;;;;;;4946652;28;93387;-78
2024/03/13 10:29:35;;;;;;;;;;;;;;;;;;4943678;28;93694;-79
2024/03/13 10:32:00;;;;;;;;;;;;;;;;;;4948456;28;93434;-79
2024/03/13 10:34:26;;;;;;;;;;;;;;;;;;4943153;28;93374;-81
2024/03/13 10:36:52;;;;;;;;;;;;;;;;;;4946579;28;92921;-79
2024/03/13 10:39:20;;;;;;;;;;;;;;;;;;4943961;28;92662;-80
2024/03/13 10:41:46;;;;;;;;;;;;;;;;;;4938140;28;95023;-76
2024/03/13 10:44:11;;;;;;;;;;;;;;;;;;4941065;28;94989;-79
2024/03/13 10:46:37;;;;;;;;;;;;;;;;;;4947441;28;92856;-77
2024/03/13 10:49:03;;;;;;;;;;;;;;;;;;4932044;28;94732;-76
2024/03/13 10:51:30;;;;;;;;;;;;;;;;;;4932692;28;93585;-76
2024/03/13 10:53:55;;;;;;;;;;;;;;;;;;4945579;28;93185;-79
2024/03/13 10:56:21;;;;;;;;;;;;;;;;;;4945188;28;94333;-73
2024/03/13 10:58:47;;;;;;;;;;;;;;;;;;4933730;28;92723;-74
2024/03/13 11:01:17;;;;;;;;;;;;;;;;;;4925824;28;95466;-75
2024/03/13 11:03:43;;;;;;;;;;;;;;;;;;4925637;28;94289;-76
2024/03/13 11:06:10;;;;;;;;;;;;;;;;;;4944631;28;92896;-80
2024/03/13 11:08:35;;;;;;;;;;;;;;;;;;4953486;28;95780;-80
2024/03/13 11:11:01;;;;;;;;;;;;;;;;;;4975212;28;93792;-82
2024/03/13 11:13:27;;;;;;;;;;;;;;;;;;4955951;28;92194;-79
2024/03/13 11:15:56;;;;;;;;;;;;;;;;;;4944842;28;93602;-80
2024/03/13 11:18:21;;;;;;;;;;;;;;;;;;4936760;28;95273;-72
2024/03/13 11:20:47;;;;;;;;;;;;;;;;;;4928762;28;92423;-77
2024/03/13 11:23:20;;;;;;;;;;;;;;;;;;4935324;28;92959;-77
2024/03/13 11:25:47;;;;;;;;;;;;;;;;;;4944312;28;93179;-78
2024/03/13 11:28:19;;;;;;;;;;;;;;;;;;4943884;28;94102;-76
2024/03/13 11:30:46;;;;;;;;;;;;;;;;;;4945060;28;94002;-76
2024/03/13 11:33:11;;;;;;;;;;;;;;;;;;4947037;28;91694;-76
2024/03/13 11:35:36;;;;;;;;;;;;;;;;;;4940834;28;93223;-76
2024/03/13 11:38:02;;;;;;;;;;;;;;;;;;4940589;28;93870;-76
2024/03/13 11:40:27;;;;;;;;;;;;;;;;;;4946499;28;93846;-76
2024/03/13 11:42:56;;;;;;;;;;;;;;;;;;4942710;28;92867;-75
2024/03/13 11:45:23;;;;;;;;;;;;;;;;;;4942070;28;92822;-76
2024/03/13 11:47:49;;;;;;;;;;;;;;;;;;4940493;28;92980;-75
2024/03/13 11:50:15;;;;;;;;;;;;;;;;;;4939322;28;94004;-76
2024/03/13 11:53:01;;;;;;;;;;;;;;;;;;4937959;28;93222;-76
2024/03/13 11:55:27;;;;;;;;;;;;;;;;;;4928923;28;92583;-76
2024/03/13 11:58:02;;;;;;;;;;;;;;;;;;4933766;28;91740;-79
2024/03/13 12:00:28;;;;;;;;;;;;;;;;;;4944131;28;92809;-77
2024/03/13 12:02:56;;;;;;;;;;;;;;;;;;4938733;28;92622;-79
2024/03/13 12:05:32;;;;;;;;;;;;;;;;;;4936953;28;94197;-79
2024/03/13 12:07:59;;;;;;;;;;;;;;;;;;4936306;28;93656;-79
2024/03/13 12:10:25;;;;;;;;;;;;;;;;;;4932366;28;92790;-78
2024/03/13 12:12:52;;;;;;;;;;;;;;;;;;4940740;28;92614;-79
2024/03/13 12:15:18;;;;;;;;;;;;;;;;;;4939441;28;92530;-79
2024/03/13 12:17:44;;;;;;;;;;;;;;;;;;4934148;28;92851;-79
2024/03/13 12:20:12;;;;;;;;;;;;;;;;;;4938146;28;92720;-76
2024/03/13 12:22:37;;;;;;;;;;;;;;;;;;4935030;28;92961;-78
2024/03/13 12:25:03;;;;;;;;;;;;;;;;;;4949591;28;92945;-77
2024/03/13 12:27:28;;;;;;;;;;;;;;;;;;4934263;28;92784;-76
2024/03/13 12:29:54;;;;;;;;;;;;;;;;;;4937865;28;93710;-76
2024/03/13 12:32:21;;;;;;;;;;;;;;;;;;4944019;28;93097;-76
2024/03/13 12:34:46;;;;;;;;;;;;;;;;;;4936269;28;95130;-76
2024/03/13 12:37:15;;;;;;;;;;;;;;;;;;4938075;28;92908;-77
2024/03/13 12:39:46;;;;;;;;;;;;;;;;;;4944803;28;93064;-78
2024/03/13 12:42:12;;;;;;;;;;;;;;;;;;4942866;28;96431;-77
2024/03/13 12:44:38;;;;;;;;;;;;;;;;;;4942636;28;95294;-77
2024/03/13 12:47:03;;;;;;;;;;;;;;;;;;4944981;28;92250;-75
2024/03/13 12:49:30;;;;;;;;;;;;;;;;;;4940795;28;92841;-75
2024/03/13 12:51:55;;;;;;;;;;;;;;;;;;4941891;28;93612;-74
2024/03/13 12:54:23;;;;;;;;;;;;;;;;;;4939153;28;94394;-76
2024/03/13 12:56:50;;;;;;;;;;;;;;;;;;4939375;28;93305;-76
2024/03/13 12:59:15;;;;;;;;;;;;;;;;;;4938718;28;93454;-76
2024/03/13 13:01:44;;;;;;;;;;;;;;;;;;4940656;28;94308;-77
2024/03/13 13:04:17;;;;;;;;;;;;;;;;;;4944762;28;92932;-76
2024/03/13 13:06:43;;;;;;;;;;;;;;;;;;4940731;28;93900;-77
2024/03/13 13:09:12;;;;;;;;;;;;;;;;;;4945667;28;94007;-76
2024/03/13 13:11:40;;;;;;;;;;;;;;;;;;4942108;28;92149;-76
2024/03/13 13:14:07;;;;;;;;;;;;;;;;;;4944382;28;92694;-75
2024/03/13 13:16:33;;;;;;;;;;;;;;;;;;4945795;28;94366;-76
2024/03/13 13:19:00;;;;;;;;;;;;;;;;;;4942899;28;93854;-77
2024/03/13 13:21:25;;;;;;;;;;;;;;;;;;4947591;28;93545;-75
2024/03/13 13:23:50;;;;;;;;;;;;;;;;;;4940527;28;95440;-76
2024/03/13 13:26:15;;;;;;;;;;;;;;;;;;4943466;28;93683;-78
2024/03/13 13:28:44;;;;;;;;;;;;;;;;;;4941618;28;93824;-78
2024/03/13 13:31:10;;;;;;;;;;;;;;;;;;4937687;28;92920;-77
2024/03/13 13:33:36;;;;;;;;;;;;;;;;;;4933406;28;93738;-77
2024/03/13 13:36:02;;;;;;;;;;;;;;;;;;4941445;28;94272;-79
2024/03/13 13:38:31;;;;;;;;;;;;;;;;;;4945875;28;92958;-79
2024/03/13 13:40:56;;;;;;;;;;;;;;;;;;4939592;28;93053;-77
2024/03/13 13:43:24;;;;;;;;;;;;;;;;;;4943792;28;93843;-76
2024/03/13 13:45:49;;;;;;;;;;;;;;;;;;4946949;28;93455;-80
2024/03/13 13:48:19;;;;;;;;;;;;;;;;;;4937590;28;92163;-78
2024/03/13 13:50:45;;;;;;;;;;;;;;;;;;4951556;28;93172;-79
2024/03/13 13:53:12;;;;;;;;;;;;;;;;;;4955838;28;93013;-78
2024/03/13 13:55:37;;;;;;;;;;;;;;;;;;4958264;28;92847;-80
2024/03/13 13:58:03;;;;;;;;;;;;;;;;;;4951851;28;92218;-78
2024/03/13 14:00:30;;;;;;;;;;;;;;;;;;4928475;28;93826;-77
2024/03/13 14:02:55;;;;;;;;;;;;;;;;;;4937182;28;93270;-77
2024/03/13 14:05:20;;;;;;;;;;;;;;;;;;4939241;28;92803;-77
2024/03/13 14:07:45;;;;;;;;;;;;;;;;;;4942411;28;94804;-76
2024/03/13 14:10:11;;;;;;;;;;;;;;;;;;4947548;28;94937;-79
2024/03/13 14:12:40;;;;;;;;;;;;;;;;;;4948041;28;93087;-77
2024/03/13 14:15:11;;;;;;;;;;;;;;;;;;4936588;28;92763;-76
2024/03/13 14:17:36;;;;;;;;;;;;;;;;;;4936822;28;94210;-78
2024/03/13 14:20:02;;;;;;;;;;;;;;;;;;4942066;28;93896;-77
2024/03/13 14:22:27;;;;;;;;;;;;;;;;;;4931844;28;92595;-76
2024/03/13 14:24:54;;;;;;;;;;;;;;;;;;4946207;28;91707;-76
2024/03/13 14:27:19;;;;;;;;;;;;;;;;;;4937940;28;92357;-76
2024/03/13 14:29:45;;;;;;;;;;;;;;;;;;4937101;28;92544;-75
2024/03/13 14:32:10;;;;;;;;;;;;;;;;;;4943422;28;93773;-75
2024/03/13 14:34:39;;;;;;;;;;;;;;;;;;4938375;28;94231;-77
2024/03/13 14:37:04;;;;;;;;;;;;;;;;;;4934835;28;92718;-77
2024/03/13 14:39:31;;;;;;;;;;;;;;;;;;4934740;28;95475;-77
2024/03/13 14:41:56;;;;;;;;;;;;;;;;;;4938190;28;93722;-78
2024/03/13 14:44:22;;;;;;;;;;;;;;;;;;4931392;28;92811;-77
2024/03/13 14:46:47;;;;;;;;;;;;;;;;;;4935094;28;95199;-75
2024/03/13 14:49:14;;;;;;;;;;;;;;;;;;4941823;28;92532;-74
2024/03/13 14:51:39;;;;;;;;;;;;;;;;;;4935690;28;93204;-78
2024/03/13 14:54:05;;;;;;;;;;;;;;;;;;4944105;28;95364;-76
2024/03/13 14:56:30;;;;;;;;;;;;;;;;;;4931408;28;94163;-77
2024/03/13 14:58:55;;;;;;;;;;;;;;;;;;4933134;28;93666;-77
2024/03/13 15:01:20;;;;;;;;;;;;;;;;;;4937484;28;92827;-77
2024/03/13 15:03:53;;;;;;;;;;;;;;;;;;4936827;28;93642;-77
2024/03/13 15:06:19;;;;;;;;;;;;;;;;;;4933268;28;93037;-76
2024/03/13 15:08:44;;;;;;;;;;;;;;;;;;4937153;28;95722;-76
2024/03/13 15:11:09;;;;;;;;;;;;;;;;;;4934270;28;94095;-77
2024/03/13 15:13:34;;;;;;;;;;;;;;;;;;4936711;28;95208;-77
2024/03/13 15:16:00;;;;;;;;;;;;;;;;;;4938715;28;93186;-79
2024/03/13 15:18:25;;;;;;;;;;;;;;;;;;4930782;28;92814;-80
2024/03/13 15:20:51;;;;;;;;;;;;;;;;;;4938565;28;97024;-77
2024/03/13 15:23:16;;;;;;;;;;;;;;;;;;4945078;28;93125;-78
2024/03/13 15:25:42;;;;;;;;;;;;;;;;;;4942517;28;95360;-80
2024/03/13 15:28:07;;;;;;;;;;;;;;;;;;4933230;28;94429;-77
2024/03/13 15:30:33;;;;;;;;;;;;;;;;;;4932984;28;92309;-76
2024/03/13 15:33:00;;;;;;;;;;;;;;;;;;4933312;28;92932;-77
2024/03/13 15:35:25;;;;;;;;;;;;;;;;;;4939571;28;95887;-73
2024/03/13 15:37:50;;;;;;;;;;;;;;;;;;4938802;28;92641;-78
2024/03/13 15:40:15;;;;;;;;;;;;;;;;;;4941879;28;93923;-78
2024/03/13 15:42:41;;;;;;;;;;;;;;;;;;4942323;28;92324;-77
2024/03/13 15:45:07;;;;;;;;;;;;;;;;;;4937981;28;94744;-76
2024/03/13 15:47:33;;;;;;;;;;;;;;;;;;4934584;28;93975;-77
2024/03/13 15:49:59;;;;;;;;;;;;;;;;;;4942037;28;92939;-77
2024/03/13 15:52:24;;;;;;;;;;;;;;;;;;4938778;28;92696;-77
2024/03/13 15:54:50;;;;;;;;;;;;;;;;;;4918033;28;95384;-77
2024/03/13 15:57:15;;;;;;;;;;;;;;;;;;4937082;28;93053;-78
2024/03/13 15:59:41;;;;;;;;;;;;;;;;;;4940683;28;95252;-77
2024/03/13 16:02:06;;;;;;;;;;;;;;;;;;4936647;28;91949;-78
2024/03/13 16:04:32;;;;;;;;;;;;;;;;;;4932486;28;94131;-78
2024/03/13 16:06:57;;;;;;;;;;;;;;;;;;4938842;28;93316;-77
2024/03/13 16:09:23;;;;;;;;;;;;;;;;;;4930499;28;93507;-77
2024/03/13 16:11:48;;;;;;;;;;;;;;;;;;4935053;28;96681;-76
2024/03/13 16:14:13;;;;;;;;;;;;;;;;;;4941178;28;94051;-76
2024/03/13 16:16:39;;;;;;;;;;;;;;;;;;4937075;28;92884;-76
2024/03/13 16:19:05;;;;;;;;;;;;;;;;;;4942186;28;92640;-77
2024/03/13 16:21:30;;;;;;;;;;;;;;;;;;4943914;28;93093;-76
2024/03/13 16:23:56;;;;;;;;;;;;;;;;;;4942495;28;93036;-77
2024/03/13 16:26:21;;;;;;;;;;;;;;;;;;4940330;28;92964;-75
2024/03/13 16:28:47;;;;;;;;;;;;;;;;;;4940671;28;93094;-76
2024/03/13 16:31:13;;;;;;;;;;;;;;;;;;4933971;28;93058;-76
2024/03/13 16:33:38;;;;;;;;;;;;;;;;;;4941318;28;93819;-75
2024/03/13 16:36:05;;;;;;;;;;;;;;;;;;4939990;28;92506;-73
2024/03/13 16:38:31;;;;;;;;;;;;;;;;;;4941500;28;93411;-76
2024/03/13 16:40:56;;;;;;;;;;;;;;;;;;4940149;28;93157;-76
2024/03/13 16:43:22;;;;;;;;;;;;;;;;;;4944406;28;93159;-75
2024/03/13 16:45:47;;;;;;;;;;;;;;;;;;4943660;28;93629;-75
2024/03/13 16:48:12;;;;;;;;;;;;;;;;;;4944443;28;93261;-75
2024/03/13 16:50:37;;;;;;;;;;;;;;;;;;4923390;28;93381;-78
2024/03/13 16:53:03;;;;;;;;;;;;;;;;;;4943535;28;93443;-76
2024/03/13 16:55:28;;;;;;;;;;;;;;;;;;4944560;28;92562;-75
2024/03/13 16:57:54;;;;;;;;;;;;;;;;;;4941069;28;93308;-76
2024/03/13 17:00:19;;;;;;;;;;;;;;;;;;4944285;28;93548;-75